Terminal Aerodrome Forecast
Issued by NWS Norman, OK

Home | Current Version | Previous Version | Text Only | Print | Product List | Glossary On
Versions: 1 2 3 4 5 6 7 8 9 10 11 12 13 14 15 16 17 18 19 20 21 22 23 24 25 26 27 28 29 30 31 32 33
000
FTUS44 KOUN 181403 AAA
TAFSPS
TAF AMD
KSPS 181403Z 1814/1912 19010KT 5SM BR BKN015
      TEMPO 1814/1816 OVC004
     FM181800 18010KT P6SM BKN035
     FM182100 17010KT P6SM VCTS SCT050CB BKN200
     FM190100 13006KT P6SM FEW008 BKN100=

USA.gov is the U.S. government's official web portal to all federal, state and local government web resources and services.